Laredo, TX (78042)

11:35 PM CDT on September 03, 2015 (GMT -0500)
Laredo International | | Change Station
CLOSE
Current Station
Airport
Location: Laredo,
Elevation: 509 ft
Nearby Weather Stations

Elev 509 ft 27.54 °N, 99.46 °W | Updated 39 minutes ago

Overcast
Overcast
86 °F
Feels Like 94 °F
N
10
Wind Variable Wind from ESE

Today
High -- | Low -- °F
--% Chance of Precip.
Yesterday
High -- | Low -- °F
Precip. -- in
7:17 AM 7:56 PM
Waning Gibbous, 63% visible
Pressure 29.84 in
Visibility 10.0 miles
Clouds Few 3800 ft
Scattered Clouds 5500 ft
Mostly Cloudy 8000 ft
Heat Index 94 °F
Dew Point 74 °F
Humidity 67%
Rainfall 0.00 in
Snow Depth Not available.
UV 0 out of 12
Pollen 9.00 out of 12
Air Quality Not available.
Flu Activity Not available.
METAR KLRD 040356Z 12009KT 10SM FEW038 SCT055 BKN080 30/23 A2987 RMK AO2 T03000233 SLP103
Pressure 29.84 in
Visibility 10.0 miles
Clouds Few 3800 ft
Scattered Clouds 5500 ft
Mostly Cloudy 8000 ft
Heat Index 94 °F
Dew Point 74 °F
Humidity 67%
Rainfall 0.00 in
Snow Depth Not available.
UV 0 out of 12
Pollen 9.00 out of 12
Air Quality Not available.
Flu Activity Not available.
METAR KLRD 040356Z 12009KT 10SM FEW038 SCT055 BKN080 30/23 A2987 RMK AO2 T03000233 SLP103

10-Day Weather Forecast

×

Almanac

Astronomy

Sep. 03, 2015 Rise Set
Actual Time
Civil Twilight
Nautical Twilight
Astronomical Twilight
Moon
Length of Visible Light
Length of Day
Tomorrow will be .
, % of the Moon is Illuminated

Today's Extremes

State Highs State Lows

Community

WunderPhotos

Upload Photos

1,852,129 photos uploaded!

WunderBlogs® & News

Nearby

Air Quality

  Air Quality AQ Index Pollutant
Not available.

Snow Depth

Station Depth Elevation

Earthquake Activity

City Distance Mag. Time & Date
Minimum magnitude displayed is 2.5.

Coastal Water Temperatures

Place Temperature

Stations

Nearby Weather Stations

Station Location Temp. Windchill Dew Point Humidity Wind Precip. Elev Updated Type